createdAt,value
2023-04-12T00:00:39.474Z,23.34
2023-04-12T00:03:11.833Z,23.29
2023-04-12T00:05:48.287Z,22.85
2023-04-12T00:08:19.507Z,23.43
2023-04-12T00:10:50.765Z,23.68
2023-04-12T00:13:22.576Z,23.21
2023-04-12T00:15:53.963Z,22.55
2023-04-12T00:18:26.748Z,22.70
2023-04-12T00:20:58.231Z,22.45
2023-04-12T00:23:29.579Z,22.10
2023-04-12T00:26:00.854Z,22.05
2023-04-12T00:28:32.375Z,21.68
2023-04-12T00:31:04.384Z,22.50
2023-04-12T00:33:38.028Z,23.05
2023-04-12T00:36:09.720Z,24.49
2023-04-12T00:38:41.391Z,24.50
2023-04-12T00:41:12.666Z,25.11
2023-04-12T00:43:44.226Z,24.88
2023-04-12T00:46:15.567Z,25.33
2023-04-12T00:48:49.478Z,24.51
2023-04-12T00:51:23.913Z,24.71
2023-04-12T00:53:57.119Z,24.78
2023-04-12T00:56:30.022Z,25.28
2023-04-12T00:59:01.697Z,25.42
2023-04-12T01:01:33.491Z,24.61
2023-04-12T01:04:06.090Z,24.04
2023-04-12T01:06:44.173Z,24.29
2023-04-12T01:09:31.635Z,24.36
2023-04-12T01:12:23.529Z,24.32
2023-04-12T01:15:12.780Z,25.59
2023-04-12T01:18:07.126Z,25.65
2023-04-12T01:20:49.815Z,25.52
2023-04-12T01:23:42.196Z,24.04
2023-04-12T01:26:34.599Z,24.10
2023-04-12T01:29:13.351Z,24.68
2023-04-12T01:31:53.251Z,24.39
2023-04-12T01:34:33.739Z,23.88
2023-04-12T01:37:12.561Z,23.63
2023-04-12T01:39:45.827Z,23.74
2023-04-12T01:42:22.043Z,23.43
2023-04-12T01:44:53.069Z,23.46
2023-04-12T01:47:24.473Z,23.14
2023-04-12T01:50:21.317Z,22.75
2023-04-12T01:53:04.510Z,22.74
2023-04-12T01:55:36.902Z,22.85
2023-04-12T01:58:08.896Z,22.16
2023-04-12T02:00:40.460Z,22.30
2023-04-12T02:03:13.785Z,22.21
2023-04-12T02:05:45.596Z,22.08
2023-04-12T02:08:17.352Z,21.92
2023-04-12T02:10:49.790Z,22.19
2023-04-12T02:13:21.837Z,22.27
2023-04-12T02:15:56.417Z,22.26
2023-04-12T02:18:29.328Z,21.96
2023-04-12T02:21:01.519Z,21.95
2023-04-12T02:23:32.391Z,22.17
2023-04-12T02:26:03.538Z,21.77
2023-04-12T02:28:36.073Z,21.65
2023-04-12T02:31:08.455Z,22.31
2023-04-12T02:33:42.510Z,22.11
2023-04-12T02:36:14.308Z,23.40
2023-04-12T02:38:45.366Z,23.53
2023-04-12T02:41:21.420Z,22.89
2023-04-12T02:43:53.472Z,23.78
2023-04-12T02:46:28.866Z,23.95
2023-04-12T02:49:02.454Z,22.85
2023-04-12T02:51:41.419Z,23.63
2023-04-12T02:54:13.841Z,24.28
2023-04-12T02:56:57.606Z,24.04
2023-04-12T02:59:45.565Z,23.46
2023-04-12T03:02:25.452Z,22.75
2023-04-12T03:05:01.745Z,23.50
2023-04-12T03:07:41.625Z,23.39
2023-04-12T03:10:14.460Z,23.97
2023-04-12T03:12:50.664Z,24.08
2023-04-12T03:15:25.111Z,24.20
2023-04-12T03:17:57.204Z,24.36
2023-04-12T03:20:34.962Z,23.99
2023-04-12T03:23:10.074Z,23.76
2023-04-12T03:28:44.484Z,24.16
2023-04-12T03:31:15.752Z,23.55
2023-04-12T03:33:49.898Z,24.12
2023-04-12T03:36:25.699Z,24.02
2023-04-12T03:39:06.523Z,24.55
2023-04-12T03:41:41.511Z,24.01
2023-04-12T03:44:13.068Z,22.94
2023-04-12T03:46:45.673Z,23.44
2023-04-12T03:49:18.291Z,23.84
2023-04-12T03:51:52.404Z,23.47
2023-04-12T03:54:24.483Z,23.80
2023-04-12T03:57:05.206Z,23.45
2023-04-12T03:59:47.014Z,23.18
2023-04-12T04:02:22.106Z,22.86
2023-04-12T04:04:57.483Z,22.63
2023-04-12T04:07:30.989Z,22.68
2023-04-12T04:10:01.837Z,22.88
2023-04-12T04:12:37.803Z,23.21
2023-04-12T04:15:14.062Z,23.18
2023-04-12T04:17:46.186Z,23.33
2023-04-12T04:20:19.629Z,23.11
2023-04-12T04:22:55.042Z,22.56
2023-04-12T04:25:35.202Z,22.54
2023-04-12T04:28:09.829Z,22.39
2023-04-12T04:30:43.498Z,22.50
2023-04-12T04:33:17.924Z,22.49
2023-04-12T04:35:49.971Z,22.44
2023-04-12T04:38:30.442Z,22.48
2023-04-12T04:41:10.690Z,22.22
2023-04-12T04:43:56.941Z,22.10
2023-04-12T04:46:32.559Z,21.61
2023-04-12T04:49:08.332Z,21.79
2023-04-12T04:51:39.838Z,21.97
2023-04-12T04:54:15.410Z,21.85
2023-04-12T04:56:47.946Z,22.10
2023-04-12T04:59:21.653Z,21.82
2023-04-12T05:01:54.322Z,21.63
2023-04-12T05:04:25.488Z,21.48
2023-04-12T05:06:57.388Z,21.24
2023-04-12T05:09:30.029Z,21.14
2023-04-12T05:12:01.543Z,21.06
2023-04-12T05:14:45.451Z,21.18
2023-04-12T05:17:19.062Z,21.08
2023-04-12T05:19:51.133Z,20.84
2023-04-12T05:22:24.828Z,20.77
2023-04-12T05:24:55.816Z,20.86
2023-04-12T05:27:29.952Z,20.52
2023-04-12T05:30:02.990Z,20.43
2023-04-12T05:32:34.355Z,20.42
2023-04-12T05:35:05.906Z,20.35
2023-04-12T05:37:40.165Z,20.34
2023-04-12T05:40:11.773Z,20.35
2023-04-12T05:42:42.222Z,20.43
2023-04-12T05:45:13.647Z,20.39
2023-04-12T05:47:47.411Z,20.35
2023-04-12T05:50:19.074Z,20.19
2023-04-12T05:52:50.625Z,19.89
2023-04-12T05:55:24.362Z,19.76
2023-04-12T05:57:55.831Z,19.86
2023-04-12T06:00:27.759Z,19.74
2023-04-12T06:03:00.216Z,19.63
2023-04-12T06:05:31.449Z,19.75
2023-04-12T06:08:03.432Z,19.73
2023-04-12T06:10:34.856Z,19.59
2023-04-12T06:13:07.143Z,19.37
2023-04-12T06:15:38.693Z,19.34
2023-04-12T06:18:09.923Z,19.32
2023-04-12T06:20:44.265Z,19.28
2023-04-12T06:23:16.676Z,19.31
2023-04-12T06:25:47.398Z,19.26
2023-04-12T06:28:19.114Z,19.00
2023-04-12T06:30:52.345Z,18.81
2023-04-12T06:33:26.209Z,18.88
2023-04-12T06:35:57.721Z,18.80
2023-04-12T06:38:29.450Z,18.64
2023-04-12T06:41:00.625Z,18.67
2023-04-12T06:43:31.750Z,18.41
2023-04-12T06:46:04.466Z,18.42
2023-04-12T06:48:35.710Z,18.54
2023-04-12T06:51:07.053Z,18.42
2023-04-12T06:53:40.605Z,18.21
2023-04-12T06:56:11.861Z,18.15
2023-04-12T06:58:43.036Z,18.18
2023-04-12T07:01:15.940Z,18.17
2023-04-12T07:03:47.485Z,18.23
2023-04-12T07:06:25.104Z,18.06
2023-04-12T07:08:57.970Z,17.99
2023-04-12T07:11:30.255Z,17.97
2023-04-12T07:14:01.721Z,18.14
2023-04-12T07:16:34.222Z,18.26
2023-04-12T07:19:05.364Z,18.03
2023-04-12T07:21:36.457Z,17.90
2023-04-12T07:24:07.723Z,17.79
2023-04-12T07:26:39.078Z,17.64
2023-04-12T07:29:10.418Z,17.66
2023-04-12T07:31:43.266Z,17.50
2023-04-12T07:34:15.259Z,17.56
2023-04-12T07:36:46.938Z,17.56
2023-04-12T07:39:19.259Z,17.44
2023-04-12T07:41:51.417Z,17.45
2023-04-12T07:44:22.527Z,17.41
2023-04-12T07:46:54.182Z,17.41
2023-04-12T07:49:25.223Z,17.46
2023-04-12T07:51:56.227Z,17.48
2023-04-12T07:54:30.554Z,17.41
2023-04-12T07:57:04.558Z,17.26
2023-04-12T07:59:36.089Z,17.15
2023-04-12T08:02:07.929Z,16.94
2023-04-12T08:04:39.745Z,16.99
2023-04-12T08:07:11.064Z,16.81
2023-04-12T08:09:42.367Z,16.63
2023-04-12T08:12:13.617Z,16.65
2023-04-12T08:14:45.289Z,16.62
2023-04-12T08:17:18.170Z,16.72
2023-04-12T08:19:49.878Z,16.60
2023-04-12T08:22:21.066Z,16.65
2023-04-12T08:24:52.403Z,16.70
2023-04-12T08:27:23.490Z,16.59
2023-04-12T08:29:54.778Z,16.60
2023-04-12T08:32:25.652Z,16.49
2023-04-12T08:34:56.978Z,16.46
2023-04-12T08:37:28.374Z,16.47
2023-04-12T08:40:05.665Z,16.30
2023-04-12T08:42:40.631Z,16.25
2023-04-12T08:45:13.759Z,16.31
2023-04-12T08:47:46.285Z,16.25
2023-04-12T08:50:18.163Z,16.34
2023-04-12T08:52:52.058Z,16.33
2023-04-12T08:55:23.652Z,16.40
2023-04-12T08:57:58.570Z,16.45
2023-04-12T09:00:31.906Z,16.46
2023-04-12T09:03:06.314Z,16.52
2023-04-12T09:05:37.640Z,16.61
2023-04-12T09:08:09.090Z,16.42
2023-04-12T09:10:41.130Z,16.24
2023-04-12T09:13:12.568Z,15.91
2023-04-12T09:15:53.437Z,16.08
2023-04-12T09:18:25.875Z,15.95
2023-04-12T09:21:10.864Z,15.86
2023-04-12T09:23:41.989Z,15.81
2023-04-12T09:26:30.586Z,15.81
2023-04-12T09:29:02.516Z,15.85
2023-04-12T09:31:33.885Z,15.82
2023-04-12T09:34:12.655Z,15.77
2023-04-12T09:36:44.915Z,15.70
2023-04-12T09:39:16.313Z,15.52
2023-04-12T09:41:48.319Z,15.44
2023-04-12T09:44:40.312Z,15.57
2023-04-12T09:47:11.620Z,15.59
2023-04-12T09:49:44.664Z,15.56
2023-04-12T09:52:16.825Z,15.59
2023-04-12T09:54:50.236Z,15.59
2023-04-12T09:57:22.319Z,15.43
2023-04-12T09:59:53.997Z,15.25
2023-04-12T10:02:30.006Z,15.48
2023-04-12T10:05:01.491Z,15.26
2023-04-12T10:07:34.286Z,15.15
2023-04-12T10:10:06.597Z,15.32
2023-04-12T10:12:39.079Z,15.46
2023-04-12T10:15:14.877Z,15.47
2023-04-12T10:17:50.300Z,15.52
2023-04-12T10:20:24.686Z,15.57
2023-04-12T10:22:57.717Z,15.51
2023-04-12T10:25:31.854Z,15.50
2023-04-12T10:28:21.056Z,15.57
2023-04-12T10:30:54.711Z,15.49
2023-04-12T10:33:30.117Z,15.58
2023-04-12T10:36:09.989Z,15.52
2023-04-12T10:38:54.027Z,15.51
2023-04-12T10:41:26.325Z,15.54
2023-04-12T10:44:30.121Z,15.58
2023-04-12T10:47:01.280Z,15.50
2023-04-12T10:49:33.865Z,15.60
2023-04-12T10:52:08.344Z,15.34
2023-04-12T10:54:40.061Z,15.18
2023-04-12T10:57:46.524Z,15.16
2023-04-12T11:00:18.296Z,15.18
2023-04-12T11:03:09.056Z,15.11
2023-04-12T11:06:13.109Z,15.14
2023-04-12T11:09:36.568Z,15.05
2023-04-12T11:12:10.246Z,14.91
2023-04-12T11:14:53.486Z,14.79
2023-04-12T11:17:28.900Z,14.52
2023-04-12T11:20:00.594Z,14.73
2023-04-12T11:22:35.723Z,14.63
2023-04-12T11:25:08.031Z,14.59
2023-04-12T11:27:39.483Z,14.59
2023-04-12T11:30:11.988Z,14.65
2023-04-12T11:32:43.598Z,14.74
2023-04-12T11:35:25.637Z,14.63
2023-04-12T11:38:00.232Z,14.57
2023-04-12T11:40:31.621Z,14.72
2023-04-12T11:43:03.133Z,14.79
2023-04-12T11:45:36.037Z,14.82
2023-04-12T11:48:10.823Z,14.69
2023-04-12T11:50:43.111Z,14.53
2023-04-12T11:53:21.230Z,14.59
2023-04-12T11:55:53.439Z,14.62
2023-04-12T11:58:33.433Z,14.56
2023-04-12T12:01:05.560Z,14.67
2023-04-12T12:03:36.977Z,14.60
2023-04-12T12:06:10.018Z,14.58
2023-04-12T12:08:41.926Z,14.39
2023-04-12T12:11:13.096Z,14.27
2023-04-12T12:13:55.724Z,14.49
2023-04-12T12:16:29.328Z,14.51
2023-04-12T12:19:00.692Z,14.60
2023-04-12T12:21:32.979Z,14.58
2023-04-12T12:24:04.598Z,14.58
2023-04-12T12:26:35.690Z,14.61
2023-04-12T12:29:07.481Z,14.66
2023-04-12T12:31:39.755Z,14.70
2023-04-12T12:34:15.911Z,14.51
2023-04-12T12:36:46.853Z,14.54
2023-04-12T12:39:18.316Z,14.48
2023-04-12T12:41:57.752Z,14.52
2023-04-12T12:44:28.747Z,14.42
2023-04-12T12:47:10.264Z,14.33
2023-04-12T12:49:45.124Z,14.27
2023-04-12T12:52:17.887Z,14.22
2023-04-12T12:54:49.318Z,14.23
2023-04-12T12:57:21.811Z,14.10
2023-04-12T12:59:53.287Z,14.27
2023-04-12T13:02:24.582Z,14.17
2023-04-12T13:04:56.526Z,14.11
2023-04-12T13:07:27.724Z,14.15
2023-04-12T13:09:59.043Z,14.15
2023-04-12T13:12:30.328Z,14.21
2023-04-12T13:15:17.308Z,14.21
2023-04-12T13:17:55.045Z,14.14
2023-04-12T13:20:26.765Z,14.21
2023-04-12T13:22:57.797Z,14.16
2023-04-12T13:25:29.305Z,14.15
2023-04-12T13:28:00.467Z,14.22
2023-04-12T13:30:31.526Z,14.16
2023-04-12T13:33:02.453Z,14.18
2023-04-12T13:35:33.952Z,14.06
2023-04-12T13:38:05.683Z,13.91
2023-04-12T13:40:37.429Z,13.92
2023-04-12T13:43:09.953Z,13.95
2023-04-12T13:45:41.200Z,13.75
2023-04-12T13:48:13.375Z,13.76
2023-04-12T13:50:44.218Z,13.77
2023-04-12T13:53:15.631Z,13.69
2023-04-12T13:55:47.813Z,13.70
2023-04-12T13:58:20.166Z,13.73
2023-04-12T14:00:51.774Z,13.54
2023-04-12T14:03:23.833Z,13.62
2023-04-12T14:05:54.366Z,13.57
2023-04-12T14:08:25.581Z,13.47
2023-04-12T14:10:57.221Z,13.43
2023-04-12T14:13:29.729Z,13.50
2023-04-12T14:16:00.923Z,13.63
2023-04-12T14:18:32.173Z,13.52
2023-04-12T14:21:04.810Z,13.59
2023-04-12T14:23:35.899Z,13.61
2023-04-12T14:26:07.378Z,13.68
2023-04-12T14:28:38.719Z,13.69
2023-04-12T14:31:09.988Z,13.77
2023-04-12T14:33:41.319Z,13.68
2023-04-12T14:36:12.965Z,13.61
2023-04-12T14:38:44.282Z,13.73
2023-04-12T14:41:15.456Z,13.65
2023-04-12T14:43:48.013Z,13.62
2023-04-12T14:46:19.663Z,13.63
2023-04-12T14:48:51.676Z,13.61
2023-04-12T14:51:23.138Z,13.74
2023-04-12T14:53:54.592Z,13.79
2023-04-12T14:56:29.649Z,13.72
2023-04-12T14:59:02.582Z,13.72
2023-04-12T15:01:33.374Z,13.70
2023-04-12T15:04:05.712Z,13.49
2023-04-12T15:06:43.756Z,13.62
2023-04-12T15:09:17.207Z,13.33
2023-04-12T15:11:56.362Z,13.35
2023-04-12T15:14:27.645Z,13.29
2023-04-12T15:16:59.422Z,13.25
2023-04-12T15:19:30.573Z,13.23
2023-04-12T15:22:02.180Z,13.11
2023-04-12T15:24:32.857Z,13.16
2023-04-12T15:27:05.901Z,13.13
2023-04-12T15:29:37.881Z,13.15
2023-04-12T15:32:10.337Z,13.26
2023-04-12T15:34:41.444Z,13.19
2023-04-12T15:37:16.162Z,13.24
2023-04-12T15:39:47.599Z,13.21
2023-04-12T15:42:19.369Z,13.25
2023-04-12T15:44:50.171Z,13.24
2023-04-12T15:47:21.143Z,13.22
2023-04-12T15:49:55.963Z,13.20
2023-04-12T15:52:27.339Z,13.28
2023-04-12T15:54:58.557Z,13.30
2023-04-12T15:57:29.675Z,13.17
2023-04-12T16:00:01.389Z,13.31
2023-04-12T16:02:35.726Z,13.32
2023-04-12T16:05:06.910Z,13.29
2023-04-12T16:07:41.865Z,13.24
2023-04-12T16:10:14.101Z,13.34
2023-04-12T16:12:46.239Z,13.40
2023-04-12T16:15:22.355Z,13.39
2023-04-12T16:17:55.850Z,13.44
2023-04-12T16:20:27.449Z,13.49
2023-04-12T16:23:00.259Z,13.48
2023-04-12T16:25:31.979Z,13.42
2023-04-12T16:28:06.744Z,13.42
2023-04-12T16:30:38.220Z,13.36
2023-04-12T16:33:09.494Z,13.56
2023-04-12T16:35:40.785Z,13.57
2023-04-12T16:38:15.844Z,13.58
2023-04-12T16:40:49.188Z,13.62
2023-04-12T16:43:20.469Z,13.66
2023-04-12T16:45:51.848Z,13.71
2023-04-12T16:48:24.094Z,13.45
2023-04-12T16:50:55.663Z,13.49
2023-04-12T16:53:26.566Z,13.65
2023-04-12T16:55:58.063Z,13.67
2023-04-12T16:58:30.301Z,13.71
2023-04-12T17:01:01.640Z,13.69
2023-04-12T17:03:33.182Z,13.77
2023-04-12T17:06:05.873Z,13.73
2023-04-12T17:08:37.122Z,13.90
2023-04-12T17:11:09.454Z,13.77
2023-04-12T17:13:40.831Z,13.78
2023-04-12T17:16:12.969Z,13.81
2023-04-12T17:18:44.981Z,13.81
2023-04-12T17:21:19.818Z,13.78
2023-04-12T17:23:51.702Z,13.78
2023-04-12T17:26:26.471Z,13.89
2023-04-12T17:28:58.213Z,13.90
2023-04-12T17:31:29.223Z,13.95
2023-04-12T17:34:02.588Z,13.87
2023-04-12T17:36:35.208Z,13.83
2023-04-12T17:39:06.607Z,13.68
2023-04-12T17:41:38.058Z,13.61
2023-04-12T17:44:09.444Z,13.63
2023-04-12T17:46:40.882Z,13.65
2023-04-12T17:49:11.820Z,13.56
2023-04-12T17:51:43.536Z,13.62
2023-04-12T17:54:14.737Z,13.83
2023-04-12T17:56:46.368Z,13.77
2023-04-12T17:59:17.502Z,13.71
2023-04-12T18:01:48.994Z,13.84
2023-04-12T18:04:20.377Z,13.85
2023-04-12T18:06:51.810Z,13.69
2023-04-12T18:09:23.228Z,13.63
2023-04-12T18:11:56.279Z,13.58
2023-04-12T18:14:28.133Z,13.47
2023-04-12T18:17:01.211Z,13.74
2023-04-12T18:19:33.457Z,13.60
2023-04-12T18:22:04.720Z,13.63
2023-04-12T18:24:37.287Z,13.75
2023-04-12T18:27:09.655Z,13.81
2023-04-12T18:29:40.588Z,13.82
2023-04-12T18:32:11.806Z,13.86
2023-04-12T18:34:43.214Z,13.90
2023-04-12T18:37:14.685Z,13.91
2023-04-12T18:39:47.434Z,13.80
2023-04-12T18:42:18.998Z,13.86
2023-04-12T18:44:50.317Z,13.87
2023-04-12T18:47:21.581Z,13.92
2023-04-12T18:49:52.653Z,13.93
2023-04-12T18:52:24.399Z,14.05
2023-04-12T18:54:56.219Z,13.93
2023-04-12T18:57:27.538Z,13.84
2023-04-12T18:59:59.082Z,13.81
2023-04-12T19:02:30.683Z,13.89
2023-04-12T19:05:02.200Z,13.86
2023-04-12T19:07:33.605Z,13.87
2023-04-12T19:10:07.155Z,13.95
2023-04-12T19:12:38.448Z,13.94
2023-04-12T19:15:10.368Z,13.89
2023-04-12T19:17:41.790Z,13.91
2023-04-12T19:20:13.124Z,14.04
2023-04-12T19:22:44.841Z,13.90
2023-04-12T19:25:18.930Z,14.10
2023-04-12T19:27:51.150Z,14.13
2023-04-12T19:30:22.694Z,14.04
2023-04-12T19:32:53.983Z,14.21
2023-04-12T19:35:25.527Z,14.37
2023-04-12T19:37:56.626Z,14.34
2023-04-12T19:40:29.882Z,14.35
2023-04-12T19:43:02.196Z,14.26
2023-04-12T19:45:33.784Z,14.40
2023-04-12T19:48:05.166Z,14.50
2023-04-12T19:50:37.505Z,14.45
2023-04-12T19:53:09.687Z,14.51
2023-04-12T19:55:43.491Z,14.50
2023-04-12T19:58:15.137Z,14.57
2023-04-12T20:00:46.711Z,14.43
2023-04-12T20:03:18.230Z,14.30
2023-04-12T20:05:49.473Z,14.27
2023-04-12T20:08:20.600Z,14.49
2023-04-12T20:10:52.275Z,14.56
2023-04-12T20:13:26.494Z,14.68
2023-04-12T20:15:57.746Z,14.40
2023-04-12T20:18:29.355Z,14.56
2023-04-12T20:21:00.583Z,14.54
2023-04-12T20:23:33.541Z,14.42
2023-04-12T20:26:05.363Z,14.84
2023-04-12T20:28:36.112Z,14.86
2023-04-12T20:31:07.808Z,15.02
2023-04-12T20:33:39.021Z,14.75
2023-04-12T20:36:12.094Z,15.06
2023-04-12T20:38:47.353Z,15.12
2023-04-12T20:41:19.060Z,15.00
2023-04-12T20:43:50.800Z,14.92
2023-04-12T20:46:27.064Z,15.28
2023-04-12T20:48:59.731Z,15.27
2023-04-12T20:51:31.057Z,15.31
2023-04-12T20:54:03.700Z,15.47
2023-04-12T20:56:35.165Z,15.45
2023-04-12T20:59:06.412Z,15.47
2023-04-12T21:01:37.854Z,15.61
2023-04-12T21:04:09.927Z,15.73
2023-04-12T21:06:41.020Z,15.92
2023-04-12T21:09:12.086Z,16.07
2023-04-12T21:11:44.785Z,16.11
2023-04-12T21:14:18.639Z,16.14
2023-04-12T21:16:52.611Z,16.23
2023-04-12T21:19:24.484Z,16.18
2023-04-12T21:21:56.035Z,16.14
2023-04-12T21:24:27.713Z,16.15
2023-04-12T21:26:59.389Z,16.20
2023-04-12T21:29:33.112Z,16.22
2023-04-12T21:32:07.145Z,16.29
2023-04-12T21:34:38.797Z,16.24
2023-04-12T21:37:10.562Z,16.47
2023-04-12T21:39:44.869Z,16.42
2023-04-12T21:42:15.762Z,16.71
2023-04-12T21:44:46.820Z,16.78
2023-04-12T21:47:18.110Z,16.96
2023-04-12T21:49:49.499Z,16.92
2023-04-12T21:52:21.089Z,17.24
2023-04-12T21:54:53.771Z,17.29
2023-04-12T21:57:25.381Z,17.62
2023-04-12T21:59:56.768Z,17.61
2023-04-12T22:02:28.772Z,17.75
2023-04-12T22:04:59.967Z,17.77
2023-04-12T22:07:31.113Z,17.95
2023-04-12T22:10:03.859Z,18.10
2023-04-12T22:12:35.440Z,18.32
2023-04-12T22:15:08.007Z,18.55
2023-04-12T22:17:40.128Z,18.69
2023-04-12T22:20:14.232Z,18.89
2023-04-12T22:22:46.550Z,18.57
2023-04-12T22:25:24.256Z,18.81
2023-04-12T22:27:59.187Z,19.00
2023-04-12T22:30:32.103Z,19.07
2023-04-12T22:33:03.497Z,19.34
2023-04-12T22:35:38.768Z,19.65
2023-04-12T22:38:10.766Z,19.46
2023-04-12T22:40:42.098Z,19.72
2023-04-12T22:43:19.515Z,19.81
2023-04-12T22:45:51.370Z,19.85
2023-04-12T22:48:26.448Z,19.97
2023-04-12T22:50:57.778Z,20.00
2023-04-12T22:53:29.582Z,19.93
2023-04-12T22:56:01.919Z,20.03
2023-04-12T22:58:33.310Z,20.09
2023-04-12T23:01:05.642Z,20.34
2023-04-12T23:03:39.617Z,20.48
2023-04-12T23:06:14.157Z,20.61
2023-04-12T23:08:45.968Z,20.84
2023-04-12T23:11:17.150Z,21.62
2023-04-12T23:13:48.392Z,22.38
2023-04-12T23:16:19.649Z,21.53
2023-04-12T23:18:51.341Z,21.76
2023-04-12T23:21:23.126Z,21.73
2023-04-12T23:23:54.148Z,21.27
2023-04-12T23:26:26.235Z,20.70
2023-04-12T23:28:57.463Z,21.37
2023-04-12T23:31:28.445Z,22.54
2023-04-12T23:34:00.010Z,22.14
2023-04-12T23:36:30.563Z,21.31
2023-04-12T23:39:06.827Z,22.00
2023-04-12T23:41:38.256Z,22.02
2023-04-12T23:44:09.105Z,21.66
2023-04-12T23:46:40.514Z,21.69
2023-04-12T23:49:11.609Z,21.63
2023-04-12T23:51:42.961Z,21.86
2023-04-12T23:54:14.212Z,21.72
2023-04-12T23:56:46.240Z,21.17
2023-04-12T23:59:17.708Z,21.37
